sensor_id;sensor_type;location;lat;lon;timestamp;P1;durP1;ratioP1;P2;durP2;ratioP2
14092;SDS011;7123;49.468;10.992;2022-07-17T00:00:04;2.90;;;2.20;;
14092;SDS011;7123;49.468;10.992;2022-07-17T00:02:31;3.08;;;2.45;;
14092;SDS011;7123;49.468;10.992;2022-07-17T00:04:58;2.67;;;2.47;;
14092;SDS011;7123;49.468;10.992;2022-07-17T00:07:24;2.72;;;2.53;;
14092;SDS011;7123;49.468;10.992;2022-07-17T00:09:51;2.80;;;2.60;;
14092;SDS011;7123;49.468;10.992;2022-07-17T00:12:18;3.17;;;2.72;;
14092;SDS011;7123;49.468;10.992;2022-07-17T00:14:45;2.70;;;2.50;;
14092;SDS011;7123;49.468;10.992;2022-07-17T00:17:12;6.47;;;2.40;;
14092;SDS011;7123;49.468;10.992;2022-07-17T00:19:41;3.50;;;3.20;;
14092;SDS011;7123;49.468;10.992;2022-07-17T00:22:08;3.25;;;3.03;;
14092;SDS011;7123;49.468;10.992;2022-07-17T00:24:35;3.58;;;3.28;;
14092;SDS011;7123;49.468;10.992;2022-07-17T00:27:02;3.58;;;3.17;;
14092;SDS011;7123;49.468;10.992;2022-07-17T00:29:29;4.30;;;3.13;;
14092;SDS011;7123;49.468;10.992;2022-07-17T00:31:56;3.05;;;2.83;;
14092;SDS011;7123;49.468;10.992;2022-07-17T00:34:23;4.68;;;2.97;;
14092;SDS011;7123;49.468;10.992;2022-07-17T00:36:50;4.05;;;2.97;;
14092;SDS011;7123;49.468;10.992;2022-07-17T00:39:17;2.75;;;2.55;;
14092;SDS011;7123;49.468;10.992;2022-07-17T00:41:44;3.20;;;2.90;;
14092;SDS011;7123;49.468;10.992;2022-07-17T00:44:11;3.00;;;2.80;;
14092;SDS011;7123;49.468;10.992;2022-07-17T00:46:38;3.63;;;2.67;;
14092;SDS011;7123;49.468;10.992;2022-07-17T00:49:06;4.32;;;2.60;;
14092;SDS011;7123;49.468;10.992;2022-07-17T00:51:34;3.80;;;3.35;;
14092;SDS011;7123;49.468;10.992;2022-07-17T00:54:01;4.63;;;3.33;;
14092;SDS011;7123;49.468;10.992;2022-07-17T00:56:34;3.47;;;3.17;;
14092;SDS011;7123;49.468;10.992;2022-07-17T00:59:03;3.93;;;3.10;;
14092;SDS011;7123;49.468;10.992;2022-07-17T01:01:32;2.80;;;2.57;;
14092;SDS011;7123;49.468;10.992;2022-07-17T01:03:59;4.07;;;2.83;;
14092;SDS011;7123;49.468;10.992;2022-07-17T01:06:26;2.63;;;2.42;;
14092;SDS011;7123;49.468;10.992;2022-07-17T01:08:53;2.65;;;2.45;;
14092;SDS011;7123;49.468;10.992;2022-07-17T01:11:20;7.50;;;2.60;;
14092;SDS011;7123;49.468;10.992;2022-07-17T01:13:46;4.93;;;2.50;;
14092;SDS011;7123;49.468;10.992;2022-07-17T01:16:14;2.22;;;2.03;;
14092;SDS011;7123;49.468;10.992;2022-07-17T01:18:41;3.20;;;2.50;;
14092;SDS011;7123;49.468;10.992;2022-07-17T01:21:08;2.38;;;2.22;;
14092;SDS011;7123;49.468;10.992;2022-07-17T01:23:35;2.65;;;2.40;;
14092;SDS011;7123;49.468;10.992;2022-07-17T01:26:02;3.22;;;2.67;;
14092;SDS011;7123;49.468;10.992;2022-07-17T01:28:29;3.75;;;2.45;;
14092;SDS011;7123;49.468;10.992;2022-07-17T01:30:57;3.88;;;2.35;;
14092;SDS011;7123;49.468;10.992;2022-07-17T01:33:26;2.15;;;2.05;;
14092;SDS011;7123;49.468;10.992;2022-07-17T01:35:53;2.53;;;2.33;;
14092;SDS011;7123;49.468;10.992;2022-07-17T01:38:19;3.13;;;2.50;;
14092;SDS011;7123;49.468;10.992;2022-07-17T01:40:46;2.73;;;2.53;;
14092;SDS011;7123;49.468;10.992;2022-07-17T01:43:13;2.88;;;2.42;;
14092;SDS011;7123;49.468;10.992;2022-07-17T01:45:41;3.00;;;2.40;;
14092;SDS011;7123;49.468;10.992;2022-07-17T01:48:08;2.33;;;2.13;;
14092;SDS011;7123;49.468;10.992;2022-07-17T01:50:35;2.70;;;2.50;;
14092;SDS011;7123;49.468;10.992;2022-07-17T01:53:01;5.75;;;2.28;;
14092;SDS011;7123;49.468;10.992;2022-07-17T01:55:28;2.55;;;2.13;;
14092;SDS011;7123;49.468;10.992;2022-07-17T01:57:55;2.58;;;2.38;;
14092;SDS011;7123;49.468;10.992;2022-07-17T02:00:22;3.20;;;2.00;;
14092;SDS011;7123;49.468;10.992;2022-07-17T02:02:51;3.15;;;2.28;;
14092;SDS011;7123;49.468;10.992;2022-07-17T02:05:18;2.73;;;2.30;;
14092;SDS011;7123;49.468;10.992;2022-07-17T02:07:44;2.35;;;2.20;;
14092;SDS011;7123;49.468;10.992;2022-07-17T02:10:11;3.08;;;2.67;;
14092;SDS011;7123;49.468;10.992;2022-07-17T02:12:41;5.57;;;2.65;;
14092;SDS011;7123;49.468;10.992;2022-07-17T02:15:08;2.50;;;2.28;;
14092;SDS011;7123;49.468;10.992;2022-07-17T02:17:35;3.05;;;2.50;;
14092;SDS011;7123;49.468;10.992;2022-07-17T02:20:02;3.10;;;2.63;;
14092;SDS011;7123;49.468;10.992;2022-07-17T02:22:30;2.20;;;2.10;;
14092;SDS011;7123;49.468;10.992;2022-07-17T02:24:57;3.67;;;2.63;;
14092;SDS011;7123;49.468;10.992;2022-07-17T02:27:24;4.80;;;2.47;;
14092;SDS011;7123;49.468;10.992;2022-07-17T02:29:51;3.45;;;2.15;;
14092;SDS011;7123;49.468;10.992;2022-07-17T02:32:18;2.63;;;2.43;;
14092;SDS011;7123;49.468;10.992;2022-07-17T02:34:45;5.67;;;2.33;;
14092;SDS011;7123;49.468;10.992;2022-07-17T02:37:11;2.20;;;2.00;;
14092;SDS011;7123;49.468;10.992;2022-07-17T02:39:38;2.42;;;1.92;;
14092;SDS011;7123;49.468;10.992;2022-07-17T02:42:22;2.63;;;2.43;;
14092;SDS011;7123;49.468;10.992;2022-07-17T02:44:50;2.45;;;2.35;;
14092;SDS011;7123;49.468;10.992;2022-07-17T02:47:33;2.42;;;2.22;;
14092;SDS011;7123;49.468;10.992;2022-07-17T02:50:02;4.07;;;2.30;;
14092;SDS011;7123;49.468;10.992;2022-07-17T02:52:32;2.60;;;2.30;;
14092;SDS011;7123;49.468;10.992;2022-07-17T02:54:59;2.42;;;2.30;;
14092;SDS011;7123;49.468;10.992;2022-07-17T02:57:26;2.93;;;2.50;;
14092;SDS011;7123;49.468;10.992;2022-07-17T02:59:53;2.92;;;2.50;;
14092;SDS011;7123;49.468;10.992;2022-07-17T03:02:19;2.30;;;2.10;;
14092;SDS011;7123;49.468;10.992;2022-07-17T03:04:46;3.70;;;2.40;;
14092;SDS011;7123;49.468;10.992;2022-07-17T03:07:13;2.67;;;2.35;;
14092;SDS011;7123;49.468;10.992;2022-07-17T03:09:40;2.63;;;2.42;;
14092;SDS011;7123;49.468;10.992;2022-07-17T03:12:07;6.65;;;2.25;;
14092;SDS011;7123;49.468;10.992;2022-07-17T03:14:33;3.00;;;2.50;;
14092;SDS011;7123;49.468;10.992;2022-07-17T03:17:00;2.50;;;2.30;;
14092;SDS011;7123;49.468;10.992;2022-07-17T03:19:27;2.30;;;2.20;;
14092;SDS011;7123;49.468;10.992;2022-07-17T03:21:54;3.70;;;2.50;;
14092;SDS011;7123;49.468;10.992;2022-07-17T03:24:20;2.63;;;2.17;;
14092;SDS011;7123;49.468;10.992;2022-07-17T03:26:47;2.75;;;2.33;;
14092;SDS011;7123;49.468;10.992;2022-07-17T03:29:14;2.00;;;1.90;;
14092;SDS011;7123;49.468;10.992;2022-07-17T03:31:44;2.80;;;2.60;;
14092;SDS011;7123;49.468;10.992;2022-07-17T03:34:11;2.20;;;2.03;;
14092;SDS011;7123;49.468;10.992;2022-07-17T03:36:39;4.97;;;2.40;;
14092;SDS011;7123;49.468;10.992;2022-07-17T03:39:06;5.43;;;2.13;;
14092;SDS011;7123;49.468;10.992;2022-07-17T03:41:33;2.70;;;2.50;;
14092;SDS011;7123;49.468;10.992;2022-07-17T03:44:00;3.15;;;2.45;;
14092;SDS011;7123;49.468;10.992;2022-07-17T03:46:27;2.43;;;2.23;;
14092;SDS011;7123;49.468;10.992;2022-07-17T03:48:54;4.20;;;2.30;;
14092;SDS011;7123;49.468;10.992;2022-07-17T03:51:20;2.93;;;2.30;;
14092;SDS011;7123;49.468;10.992;2022-07-17T03:53:47;3.50;;;2.50;;
14092;SDS011;7123;49.468;10.992;2022-07-17T03:56:14;2.20;;;2.07;;
14092;SDS011;7123;49.468;10.992;2022-07-17T03:58:41;2.70;;;2.30;;
14092;SDS011;7123;49.468;10.992;2022-07-17T04:01:08;2.20;;;2.07;;
14092;SDS011;7123;49.468;10.992;2022-07-17T04:03:35;2.43;;;2.23;;
14092;SDS011;7123;49.468;10.992;2022-07-17T04:06:02;2.67;;;2.20;;
14092;SDS011;7123;49.468;10.992;2022-07-17T04:08:29;3.63;;;2.33;;
14092;SDS011;7123;49.468;10.992;2022-07-17T04:10:56;5.13;;;2.33;;
14092;SDS011;7123;49.468;10.992;2022-07-17T04:13:23;3.53;;;2.17;;
14092;SDS011;7123;49.468;10.992;2022-07-17T04:15:50;3.60;;;2.00;;
14092;SDS011;7123;49.468;10.992;2022-07-17T04:18:26;3.57;;;2.10;;
14092;SDS011;7123;49.468;10.992;2022-07-17T04:20:56;3.13;;;2.17;;
14092;SDS011;7123;49.468;10.992;2022-07-17T04:23:24;5.73;;;2.30;;
14092;SDS011;7123;49.468;10.992;2022-07-17T04:25:50;2.50;;;2.30;;
14092;SDS011;7123;49.468;10.992;2022-07-17T04:28:17;6.97;;;2.30;;
14092;SDS011;7123;49.468;10.992;2022-07-17T04:30:44;2.20;;;2.10;;
14092;SDS011;7123;49.468;10.992;2022-07-17T04:33:10;2.57;;;1.93;;
14092;SDS011;7123;49.468;10.992;2022-07-17T04:35:37;5.27;;;2.20;;
14092;SDS011;7123;49.468;10.992;2022-07-17T04:38:05;6.53;;;2.27;;
14092;SDS011;7123;49.468;10.992;2022-07-17T04:40:33;2.80;;;2.30;;
14092;SDS011;7123;49.468;10.992;2022-07-17T04:43:01;2.30;;;2.20;;
14092;SDS011;7123;49.468;10.992;2022-07-17T04:45:28;2.80;;;2.07;;
14092;SDS011;7123;49.468;10.992;2022-07-17T04:47:56;3.03;;;2.27;;
14092;SDS011;7123;49.468;10.992;2022-07-17T04:50:22;2.70;;;2.13;;
14092;SDS011;7123;49.468;10.992;2022-07-17T04:52:49;3.37;;;2.03;;
14092;SDS011;7123;49.468;10.992;2022-07-17T04:55:16;3.50;;;2.10;;
14092;SDS011;7123;49.468;10.992;2022-07-17T04:57:43;4.63;;;1.93;;
14092;SDS011;7123;49.468;10.992;2022-07-17T05:00:10;2.27;;;2.03;;
14092;SDS011;7123;49.468;10.992;2022-07-17T05:02:38;2.60;;;1.80;;
14092;SDS011;7123;49.468;10.992;2022-07-17T05:05:05;2.97;;;2.07;;
14092;SDS011;7123;49.468;10.992;2022-07-17T05:07:32;2.10;;;1.90;;
14092;SDS011;7123;49.468;10.992;2022-07-17T05:09:58;3.53;;;2.20;;
14092;SDS011;7123;49.468;10.992;2022-07-17T05:12:25;1.87;;;1.77;;
14092;SDS011;7123;49.468;10.992;2022-07-17T05:14:52;2.43;;;2.20;;
14092;SDS011;7123;49.468;10.992;2022-07-17T05:17:19;2.87;;;1.90;;
14092;SDS011;7123;49.468;10.992;2022-07-17T05:19:45;3.30;;;1.97;;
14092;SDS011;7123;49.468;10.992;2022-07-17T05:22:12;2.00;;;1.90;;
14092;SDS011;7123;49.468;10.992;2022-07-17T05:24:39;2.43;;;1.90;;
14092;SDS011;7123;49.468;10.992;2022-07-17T05:27:05;5.10;;;1.97;;
14092;SDS011;7123;49.468;10.992;2022-07-17T05:29:32;2.13;;;1.70;;
14092;SDS011;7123;49.468;10.992;2022-07-17T05:31:59;2.10;;;1.90;;
14092;SDS011;7123;49.468;10.992;2022-07-17T05:34:26;2.53;;;1.83;;
14092;SDS011;7123;49.468;10.992;2022-07-17T05:36:54;3.07;;;1.80;;
14092;SDS011;7123;49.468;10.992;2022-07-17T05:39:21;2.97;;;1.88;;
14092;SDS011;7123;49.468;10.992;2022-07-17T05:41:48;1.57;;;1.47;;
14092;SDS011;7123;49.468;10.992;2022-07-17T05:44:14;2.67;;;1.67;;
14092;SDS011;7123;49.468;10.992;2022-07-17T05:46:41;2.90;;;1.90;;
14092;SDS011;7123;49.468;10.992;2022-07-17T05:49:08;1.83;;;1.63;;
14092;SDS011;7123;49.468;10.992;2022-07-17T05:51:34;5.77;;;2.47;;
14092;SDS011;7123;49.468;10.992;2022-07-17T05:54:01;3.70;;;1.93;;
14092;SDS011;7123;49.468;10.992;2022-07-17T05:56:29;3.58;;;1.65;;
14092;SDS011;7123;49.468;10.992;2022-07-17T05:58:55;3.63;;;2.10;;
14092;SDS011;7123;49.468;10.992;2022-07-17T06:01:22;1.80;;;1.70;;
14092;SDS011;7123;49.468;10.992;2022-07-17T06:03:49;2.77;;;1.63;;
14092;SDS011;7123;49.468;10.992;2022-07-17T06:06:16;2.43;;;1.70;;
14092;SDS011;7123;49.468;10.992;2022-07-17T06:08:42;1.73;;;1.60;;
14092;SDS011;7123;49.468;10.992;2022-07-17T06:11:09;2.53;;;1.70;;
14092;SDS011;7123;49.468;10.992;2022-07-17T06:13:36;3.43;;;1.50;;
14092;SDS011;7123;49.468;10.992;2022-07-17T06:16:03;4.40;;;1.60;;
14092;SDS011;7123;49.468;10.992;2022-07-17T06:18:30;4.20;;;1.57;;
14092;SDS011;7123;49.468;10.992;2022-07-17T06:20:57;3.03;;;1.30;;
14092;SDS011;7123;49.468;10.992;2022-07-17T06:23:24;5.50;;;1.70;;
14092;SDS011;7123;49.468;10.992;2022-07-17T06:25:52;2.67;;;1.43;;
14092;SDS011;7123;49.468;10.992;2022-07-17T06:28:19;2.87;;;1.40;;
14092;SDS011;7123;49.468;10.992;2022-07-17T06:30:45;4.03;;;1.33;;
14092;SDS011;7123;49.468;10.992;2022-07-17T06:33:12;2.27;;;1.80;;
14092;SDS011;7123;49.468;10.992;2022-07-17T06:35:39;1.80;;;1.57;;
14092;SDS011;7123;49.468;10.992;2022-07-17T06:38:11;6.10;;;1.40;;
14092;SDS011;7123;49.468;10.992;2022-07-17T06:40:37;4.47;;;1.40;;
14092;SDS011;7123;49.468;10.992;2022-07-17T06:43:07;3.23;;;1.43;;
14092;SDS011;7123;49.468;10.992;2022-07-17T06:45:34;2.43;;;1.60;;
14092;SDS011;7123;49.468;10.992;2022-07-17T06:48:01;3.70;;;1.50;;
14092;SDS011;7123;49.468;10.992;2022-07-17T06:50:28;2.60;;;1.63;;
14092;SDS011;7123;49.468;10.992;2022-07-17T06:52:55;5.37;;;1.40;;
14092;SDS011;7123;49.468;10.992;2022-07-17T06:55:22;7.93;;;1.60;;
14092;SDS011;7123;49.468;10.992;2022-07-17T06:57:49;7.10;;;1.33;;
14092;SDS011;7123;49.468;10.992;2022-07-17T07:00:16;3.33;;;1.50;;
14092;SDS011;7123;49.468;10.992;2022-07-17T07:02:44;2.40;;;1.30;;
14092;SDS011;7123;49.468;10.992;2022-07-17T07:05:11;1.83;;;1.20;;
14092;SDS011;7123;49.468;10.992;2022-07-17T07:07:38;3.87;;;1.60;;
14092;SDS011;7123;49.468;10.992;2022-07-17T07:10:04;2.20;;;1.47;;
14092;SDS011;7123;49.468;10.992;2022-07-17T07:12:32;4.97;;;1.30;;
14092;SDS011;7123;49.468;10.992;2022-07-17T07:14:58;2.43;;;1.40;;
14092;SDS011;7123;49.468;10.992;2022-07-17T07:17:25;3.83;;;1.57;;
14092;SDS011;7123;49.468;10.992;2022-07-17T07:19:52;2.97;;;1.30;;
14092;SDS011;7123;49.468;10.992;2022-07-17T07:22:19;2.23;;;1.30;;
14092;SDS011;7123;49.468;10.992;2022-07-17T07:24:45;3.70;;;1.40;;
14092;SDS011;7123;49.468;10.992;2022-07-17T07:27:12;1.57;;;1.20;;
14092;SDS011;7123;49.468;10.992;2022-07-17T07:29:39;1.93;;;1.30;;
14092;SDS011;7123;49.468;10.992;2022-07-17T07:32:06;3.47;;;1.20;;
14092;SDS011;7123;49.468;10.992;2022-07-17T07:34:33;4.17;;;1.43;;
14092;SDS011;7123;49.468;10.992;2022-07-17T07:36:59;2.33;;;1.13;;
14092;SDS011;7123;49.468;10.992;2022-07-17T07:39:26;3.70;;;1.27;;
14092;SDS011;7123;49.468;10.992;2022-07-17T07:41:53;5.63;;;1.20;;
14092;SDS011;7123;49.468;10.992;2022-07-17T07:44:19;5.45;;;1.30;;
14092;SDS011;7123;49.468;10.992;2022-07-17T07:46:57;1.25;;;1.00;;
14092;SDS011;7123;49.468;10.992;2022-07-17T07:49:24;6.70;;;1.48;;
14092;SDS011;7123;49.468;10.992;2022-07-17T07:51:51;2.78;;;1.00;;
14092;SDS011;7123;49.468;10.992;2022-07-17T07:54:29;1.47;;;1.20;;
14092;SDS011;7123;49.468;10.992;2022-07-17T07:56:56;5.00;;;1.13;;
14092;SDS011;7123;49.468;10.992;2022-07-17T07:59:22;5.05;;;1.20;;
14092;SDS011;7123;49.468;10.992;2022-07-17T08:01:49;4.63;;;1.40;;
14092;SDS011;7123;49.468;10.992;2022-07-17T08:04:16;1.90;;;1.13;;
14092;SDS011;7123;49.468;10.992;2022-07-17T08:06:43;1.60;;;1.17;;
14092;SDS011;7123;49.468;10.992;2022-07-17T08:09:10;1.20;;;1.00;;
14092;SDS011;7123;49.468;10.992;2022-07-17T08:11:36;3.20;;;1.30;;
14092;SDS011;7123;49.468;10.992;2022-07-17T08:14:03;3.83;;;1.20;;
14092;SDS011;7123;49.468;10.992;2022-07-17T08:16:40;4.40;;;1.40;;
14092;SDS011;7123;49.468;10.992;2022-07-17T08:19:07;3.87;;;1.40;;
14092;SDS011;7123;49.468;10.992;2022-07-17T08:21:34;3.00;;;1.30;;
14092;SDS011;7123;49.468;10.992;2022-07-17T08:24:00;2.70;;;1.37;;
14092;SDS011;7123;49.468;10.992;2022-07-17T08:26:27;2.77;;;1.30;;
14092;SDS011;7123;49.468;10.992;2022-07-17T08:28:55;3.13;;;1.17;;
14092;SDS011;7123;49.468;10.992;2022-07-17T08:31:21;2.87;;;1.30;;
14092;SDS011;7123;49.468;10.992;2022-07-17T08:33:48;2.17;;;1.10;;
14092;SDS011;7123;49.468;10.992;2022-07-17T08:36:15;1.08;;;0.80;;
14092;SDS011;7123;49.468;10.992;2022-07-17T08:38:42;2.40;;;1.13;;
14092;SDS011;7123;49.468;10.992;2022-07-17T08:41:09;5.15;;;1.08;;
14092;SDS011;7123;49.468;10.992;2022-07-17T08:43:36;3.03;;;1.33;;
14092;SDS011;7123;49.468;10.992;2022-07-17T08:46:11;1.17;;;1.05;;
14092;SDS011;7123;49.468;10.992;2022-07-17T08:48:39;2.10;;;0.88;;
14092;SDS011;7123;49.468;10.992;2022-07-17T08:51:08;2.92;;;1.30;;
14092;SDS011;7123;49.468;10.992;2022-07-17T08:53:36;2.40;;;1.23;;
14092;SDS011;7123;49.468;10.992;2022-07-17T08:56:03;2.10;;;1.13;;
14092;SDS011;7123;49.468;10.992;2022-07-17T08:58:30;4.03;;;1.13;;
14092;SDS011;7123;49.468;10.992;2022-07-17T09:00:57;3.38;;;1.30;;
14092;SDS011;7123;49.468;10.992;2022-07-17T09:03:24;3.47;;;1.35;;
14092;SDS011;7123;49.468;10.992;2022-07-17T09:05:51;2.55;;;1.05;;
14092;SDS011;7123;49.468;10.992;2022-07-17T09:08:22;1.83;;;1.10;;
14092;SDS011;7123;49.468;10.992;2022-07-17T09:10:51;1.30;;;1.10;;
14092;SDS011;7123;49.468;10.992;2022-07-17T09:16:09;2.50;;;1.20;;
14092;SDS011;7123;49.468;10.992;2022-07-17T09:21:20;2.78;;;1.38;;
14092;SDS011;7123;49.468;10.992;2022-07-17T09:26:26;2.55;;;1.25;;
14092;SDS011;7123;49.468;10.992;2022-07-17T09:28:54;2.17;;;1.30;;
14092;SDS011;7123;49.468;10.992;2022-07-17T09:31:25;1.30;;;1.20;;
14092;SDS011;7123;49.468;10.992;2022-07-17T09:33:57;2.67;;;1.23;;
14092;SDS011;7123;49.468;10.992;2022-07-17T09:36:24;3.28;;;1.00;;
14092;SDS011;7123;49.468;10.992;2022-07-17T09:38:52;3.33;;;1.20;;
14092;SDS011;7123;49.468;10.992;2022-07-17T09:41:22;2.72;;;1.50;;
14092;SDS011;7123;49.468;10.992;2022-07-17T09:43:50;2.53;;;1.33;;
14092;SDS011;7123;49.468;10.992;2022-07-17T09:46:25;5.63;;;1.42;;
14092;SDS011;7123;49.468;10.992;2022-07-17T09:48:55;1.57;;;1.30;;
14092;SDS011;7123;49.468;10.992;2022-07-17T09:51:30;4.77;;;1.13;;
14092;SDS011;7123;49.468;10.992;2022-07-17T09:54:04;2.50;;;1.30;;
14092;SDS011;7123;49.468;10.992;2022-07-17T09:56:36;2.90;;;1.40;;
14092;SDS011;7123;49.468;10.992;2022-07-17T09:59:07;5.43;;;1.30;;
14092;SDS011;7123;49.468;10.992;2022-07-17T10:01:36;2.17;;;1.40;;
14092;SDS011;7123;49.468;10.992;2022-07-17T10:04:05;3.90;;;1.38;;
14092;SDS011;7123;49.468;10.992;2022-07-17T10:06:32;1.92;;;1.10;;
14092;SDS011;7123;49.468;10.992;2022-07-17T10:09:00;4.20;;;1.23;;
14092;SDS011;7123;49.468;10.992;2022-07-17T10:11:28;2.40;;;1.10;;
14092;SDS011;7123;49.468;10.992;2022-07-17T10:14:13;3.75;;;1.10;;
14092;SDS011;7123;49.468;10.992;2022-07-17T10:16:41;1.97;;;1.20;;
14092;SDS011;7123;49.468;10.992;2022-07-17T10:19:22;1.90;;;1.37;;
14092;SDS011;7123;49.468;10.992;2022-07-17T10:24:21;1.63;;;1.35;;
14092;SDS011;7123;49.468;10.992;2022-07-17T10:26:48;3.90;;;1.00;;
14092;SDS011;7123;49.468;10.992;2022-07-17T10:29:35;1.92;;;1.08;;
14092;SDS011;7123;49.468;10.992;2022-07-17T10:32:15;5.60;;;1.50;;
14092;SDS011;7123;49.468;10.992;2022-07-17T10:48:23;1.38;;;1.10;;
14092;SDS011;7123;49.468;10.992;2022-07-17T10:50:51;1.00;;;0.95;;
14092;SDS011;7123;49.468;10.992;2022-07-17T10:53:23;5.50;;;1.30;;
14092;SDS011;7123;49.468;10.992;2022-07-17T10:55:54;2.80;;;1.30;;
14092;SDS011;7123;49.468;10.992;2022-07-17T11:01:01;1.67;;;1.13;;
14092;SDS011;7123;49.468;10.992;2022-07-17T11:03:49;1.38;;;1.10;;
14092;SDS011;7123;49.468;10.992;2022-07-17T11:06:28;4.47;;;1.40;;
14092;SDS011;7123;49.468;10.992;2022-07-17T11:08:58;2.43;;;0.87;;
14092;SDS011;7123;49.468;10.992;2022-07-17T11:14:09;4.25;;;1.10;;
14092;SDS011;7123;49.468;10.992;2022-07-17T11:16:36;1.65;;;1.00;;
14092;SDS011;7123;49.468;10.992;2022-07-17T11:19:04;2.30;;;1.27;;
14092;SDS011;7123;49.468;10.992;2022-07-17T11:21:31;3.13;;;1.10;;
14092;SDS011;7123;49.468;10.992;2022-07-17T11:24:01;2.35;;;1.17;;
14092;SDS011;7123;49.468;10.992;2022-07-17T11:26:28;3.03;;;1.40;;
14092;SDS011;7123;49.468;10.992;2022-07-17T11:28:55;4.97;;;1.20;;
14092;SDS011;7123;49.468;10.992;2022-07-17T11:31:28;1.30;;;1.05;;
14092;SDS011;7123;49.468;10.992;2022-07-17T11:34:03;2.35;;;1.00;;
14092;SDS011;7123;49.468;10.992;2022-07-17T11:36:37;1.92;;;1.00;;
14092;SDS011;7123;49.468;10.992;2022-07-17T11:39:06;1.90;;;1.05;;
14092;SDS011;7123;49.468;10.992;2022-07-17T11:44:15;1.13;;;1.02;;
14092;SDS011;7123;49.468;10.992;2022-07-17T11:46:45;2.65;;;1.00;;
14092;SDS011;7123;49.468;10.992;2022-07-17T11:49:24;3.63;;;1.25;;
14092;SDS011;7123;49.468;10.992;2022-07-17T11:51:52;2.50;;;1.20;;
14092;SDS011;7123;49.468;10.992;2022-07-17T11:54:22;2.35;;;1.15;;
14092;SDS011;7123;49.468;10.992;2022-07-17T11:56:53;3.95;;;1.10;;
14092;SDS011;7123;49.468;10.992;2022-07-17T12:01:52;1.92;;;1.23;;
14092;SDS011;7123;49.468;10.992;2022-07-17T12:04:20;7.40;;;1.52;;
14092;SDS011;7123;49.468;10.992;2022-07-17T12:06:57;2.17;;;1.33;;
14092;SDS011;7123;49.468;10.992;2022-07-17T12:09:27;2.35;;;1.05;;
14092;SDS011;7123;49.468;10.992;2022-07-17T12:11:55;3.97;;;1.10;;
14092;SDS011;7123;49.468;10.992;2022-07-17T12:14:21;1.90;;;1.00;;
14092;SDS011;7123;49.468;10.992;2022-07-17T12:16:48;2.92;;;1.40;;
14092;SDS011;7123;49.468;10.992;2022-07-17T12:19:19;5.20;;;1.10;;
14092;SDS011;7123;49.468;10.992;2022-07-17T12:21:51;2.63;;;1.20;;
14092;SDS011;7123;49.468;10.992;2022-07-17T12:24:22;2.25;;;1.27;;
14092;SDS011;7123;49.468;10.992;2022-07-17T12:26:56;2.03;;;1.23;;
14092;SDS011;7123;49.468;10.992;2022-07-17T12:29:24;1.63;;;1.10;;
14092;SDS011;7123;49.468;10.992;2022-07-17T12:32:04;3.08;;;1.52;;
14092;SDS011;7123;49.468;10.992;2022-07-17T12:34:38;2.03;;;1.80;;
14092;SDS011;7123;49.468;10.992;2022-07-17T12:37:13;2.50;;;1.90;;
14092;SDS011;7123;49.468;10.992;2022-07-17T12:39:42;1.73;;;1.30;;
14092;SDS011;7123;49.468;10.992;2022-07-17T12:42:11;0.98;;;0.88;;
14092;SDS011;7123;49.468;10.992;2022-07-17T12:44:38;1.52;;;0.90;;
14092;SDS011;7123;49.468;10.992;2022-07-17T12:47:04;2.53;;;1.27;;
14092;SDS011;7123;49.468;10.992;2022-07-17T12:49:31;1.10;;;1.00;;
14092;SDS011;7123;49.468;10.992;2022-07-17T12:51:58;3.03;;;1.52;;
14092;SDS011;7123;49.468;10.992;2022-07-17T12:54:25;4.05;;;0.98;;
14092;SDS011;7123;49.468;10.992;2022-07-17T12:56:52;2.67;;;1.02;;
14092;SDS011;7123;49.468;10.992;2022-07-17T12:59:20;0.80;;;0.80;;
14092;SDS011;7123;49.468;10.992;2022-07-17T13:01:47;1.77;;;1.02;;
14092;SDS011;7123;49.468;10.992;2022-07-17T13:04:15;1.25;;;0.98;;
14092;SDS011;7123;49.468;10.992;2022-07-17T13:06:42;1.00;;;0.80;;
14092;SDS011;7123;49.468;10.992;2022-07-17T13:09:09;2.60;;;1.35;;
14092;SDS011;7123;49.468;10.992;2022-07-17T13:11:37;1.25;;;0.77;;
14092;SDS011;7123;49.468;10.992;2022-07-17T13:14:11;1.52;;;1.00;;
14092;SDS011;7123;49.468;10.992;2022-07-17T13:16:38;1.20;;;1.10;;
14092;SDS011;7123;49.468;10.992;2022-07-17T13:19:05;3.75;;;1.08;;
14092;SDS011;7123;49.468;10.992;2022-07-17T13:21:33;1.33;;;1.20;;
14092;SDS011;7123;49.468;10.992;2022-07-17T13:24:00;7.15;;;1.20;;
14092;SDS011;7123;49.468;10.992;2022-07-17T13:26:27;0.70;;;0.70;;
14092;SDS011;7123;49.468;10.992;2022-07-17T13:28:54;0.80;;;0.80;;
14092;SDS011;7123;49.468;10.992;2022-07-17T13:31:22;1.30;;;1.10;;
14092;SDS011;7123;49.468;10.992;2022-07-17T13:33:48;1.42;;;1.17;;
14092;SDS011;7123;49.468;10.992;2022-07-17T13:36:15;3.63;;;1.23;;
14092;SDS011;7123;49.468;10.992;2022-07-17T13:38:42;3.75;;;1.23;;
14092;SDS011;7123;49.468;10.992;2022-07-17T13:41:09;1.95;;;0.80;;
14092;SDS011;7123;49.468;10.992;2022-07-17T13:43:36;0.98;;;0.88;;
14092;SDS011;7123;49.468;10.992;2022-07-17T13:46:03;1.38;;;0.95;;
14092;SDS011;7123;49.468;10.992;2022-07-17T13:48:30;1.27;;;0.90;;
14092;SDS011;7123;49.468;10.992;2022-07-17T13:50:57;3.55;;;1.23;;
14092;SDS011;7123;49.468;10.992;2022-07-17T13:53:23;2.47;;;0.80;;
14092;SDS011;7123;49.468;10.992;2022-07-17T13:55:50;0.88;;;0.77;;
14092;SDS011;7123;49.468;10.992;2022-07-17T13:58:18;7.15;;;0.82;;
14092;SDS011;7123;49.468;10.992;2022-07-17T14:00:45;1.30;;;1.00;;
14092;SDS011;7123;49.468;10.992;2022-07-17T14:03:12;2.03;;;1.00;;
14092;SDS011;7123;49.468;10.992;2022-07-17T14:05:39;2.15;;;0.90;;
14092;SDS011;7123;49.468;10.992;2022-07-17T14:08:06;1.75;;;0.70;;
14092;SDS011;7123;49.468;10.992;2022-07-17T14:10:32;1.08;;;0.98;;
14092;SDS011;7123;49.468;10.992;2022-07-17T14:12:59;1.85;;;0.90;;
14092;SDS011;7123;49.468;10.992;2022-07-17T14:15:26;2.15;;;0.70;;
14092;SDS011;7123;49.468;10.992;2022-07-17T14:17:53;1.33;;;0.90;;
14092;SDS011;7123;49.468;10.992;2022-07-17T14:20:20;1.27;;;0.98;;
14092;SDS011;7123;49.468;10.992;2022-07-17T14:22:48;0.85;;;0.85;;
14092;SDS011;7123;49.468;10.992;2022-07-17T14:25:15;1.30;;;0.80;;
14092;SDS011;7123;49.468;10.992;2022-07-17T14:27:42;3.55;;;0.82;;
14092;SDS011;7123;49.468;10.992;2022-07-17T14:30:08;1.10;;;0.90;;
14092;SDS011;7123;49.468;10.992;2022-07-17T14:32:37;2.72;;;0.90;;
14092;SDS011;7123;49.468;10.992;2022-07-17T14:35:05;1.40;;;0.77;;
14092;SDS011;7123;49.468;10.992;2022-07-17T14:37:32;1.02;;;1.00;;
14092;SDS011;7123;49.468;10.992;2022-07-17T14:40:06;1.30;;;1.00;;
14092;SDS011;7123;49.468;10.992;2022-07-17T14:42:34;2.00;;;1.10;;
14092;SDS011;7123;49.468;10.992;2022-07-17T14:45:01;0.75;;;0.70;;
14092;SDS011;7123;49.468;10.992;2022-07-17T14:47:27;0.95;;;0.82;;
14092;SDS011;7123;49.468;10.992;2022-07-17T14:49:54;1.08;;;0.98;;
14092;SDS011;7123;49.468;10.992;2022-07-17T14:52:21;0.80;;;0.80;;
14092;SDS011;7123;49.468;10.992;2022-07-17T14:54:48;1.00;;;0.90;;
14092;SDS011;7123;49.468;10.992;2022-07-17T14:57:15;2.80;;;0.90;;
14092;SDS011;7123;49.468;10.992;2022-07-17T14:59:42;0.90;;;0.90;;
14092;SDS011;7123;49.468;10.992;2022-07-17T15:02:08;6.72;;;1.33;;
14092;SDS011;7123;49.468;10.992;2022-07-17T15:04:35;0.80;;;0.80;;
14092;SDS011;7123;49.468;10.992;2022-07-17T15:07:03;1.77;;;0.90;;
14092;SDS011;7123;49.468;10.992;2022-07-17T15:09:30;1.80;;;1.17;;
14092;SDS011;7123;49.468;10.992;2022-07-17T15:11:57;2.28;;;0.93;;
14092;SDS011;7123;49.468;10.992;2022-07-17T15:14:24;1.15;;;1.02;;
14092;SDS011;7123;49.468;10.992;2022-07-17T15:16:51;1.33;;;0.80;;
14092;SDS011;7123;49.468;10.992;2022-07-17T15:19:20;0.80;;;0.80;;
14092;SDS011;7123;49.468;10.992;2022-07-17T15:21:47;0.70;;;0.70;;
14092;SDS011;7123;49.468;10.992;2022-07-17T15:24:18;4.47;;;0.80;;
14092;SDS011;7123;49.468;10.992;2022-07-17T15:26:45;2.53;;;0.70;;